sensor_id;sensor_type;location;lat;lon;timestamp;pressure;altitude;pressure_sealevel;temperature;humidity
76847;BME280;65813;49.546;8.644;2023-01-29T05:16:07;101944.41;;;-0.51;65.03
76847;BME280;65813;49.546;8.644;2023-01-29T05:20:12;101939.16;;;-0.43;66.57
76847;BME280;65813;49.546;8.644;2023-01-29T05:24:18;101956.63;;;-0.58;65.03
76847;BME280;65813;49.546;8.644;2023-01-29T05:28:18;101948.84;;;-0.73;65.44
76847;BME280;65813;49.546;8.644;2023-01-29T05:32:19;101969.75;;;-0.70;65.77
76847;BME280;65813;49.546;8.644;2023-01-29T05:36:19;101965.38;;;-0.66;65.66
76847;BME280;65813;49.546;8.644;2023-01-29T05:40:19;101967.16;;;-0.80;65.88
76847;BME280;65813;49.546;8.644;2023-01-29T05:44:20;101969.75;;;-0.70;65.84
76847;BME280;65813;49.546;8.644;2023-01-29T05:48:20;101972.34;;;-0.71;65.75
76847;BME280;65813;49.546;8.644;2023-01-29T05:52:21;101963.66;;;-0.73;65.40
76847;BME280;65813;49.546;8.644;2023-01-29T05:56:21;101956.69;;;-0.74;65.80
76847;BME280;65813;49.546;8.644;2023-01-29T06:00:22;101955.78;;;-0.60;69.54
76847;BME280;65813;49.546;8.644;2023-01-29T06:04:22;101956.63;;;-0.50;69.56
76847;BME280;65813;49.546;8.644;2023-01-29T06:08:23;101949.66;;;-0.60;68.58
76847;BME280;65813;49.546;8.644;2023-01-29T06:12:23;101954.03;;;-0.68;65.88
76847;BME280;65813;49.546;8.644;2023-01-29T06:16:23;101971.50;;;-0.82;65.35
76847;BME280;65813;49.546;8.644;2023-01-29T06:20:24;101975.03;;;-0.86;66.30
76847;BME280;65813;49.546;8.644;2023-01-29T06:24:24;101975.84;;;-0.86;67.81
76847;BME280;65813;49.546;8.644;2023-01-29T06:28:24;101969.78;;;-0.85;66.41
76847;BME280;65813;49.546;8.644;2023-01-29T06:32:25;101957.53;;;-0.66;66.93
76847;BME280;65813;49.546;8.644;2023-01-29T06:36:26;101953.13;;;-0.49;67.23
76847;BME280;65813;49.546;8.644;2023-01-29T06:40:26;101946.06;;;-0.26;69.61
76847;BME280;65813;49.546;8.644;2023-01-29T06:44:26;101954.03;;;-0.65;64.74
76847;BME280;65813;49.546;8.644;2023-01-29T06:48:27;101941.88;;;-0.80;65.62
76847;BME280;65813;49.546;8.644;2023-01-29T06:52:27;101932.28;;;-0.76;65.36
76847;BME280;65813;49.546;8.644;2023-01-29T06:56:28;101948.84;;;-0.80;65.93
76847;BME280;65813;49.546;8.644;2023-01-29T07:00:29;101963.69;;;-0.94;66.41
76847;BME280;65813;49.546;8.644;2023-01-29T07:04:29;101963.69;;;-0.97;67.29
76847;BME280;65813;49.546;8.644;2023-01-29T07:08:29;101965.41;;;-0.99;68.59
76847;BME280;65813;49.546;8.644;2023-01-29T07:12:30;101963.69;;;-0.94;67.62
76847;BME280;65813;49.546;8.644;2023-01-29T07:16:30;101968.91;;;-0.94;67.50
76847;BME280;65813;49.546;8.644;2023-01-29T07:20:31;101959.31;;;-0.91;67.44
76847;BME280;65813;49.546;8.644;2023-01-29T07:24:31;101958.44;;;-0.94;68.29
76847;BME280;65813;49.546;8.644;2023-01-29T07:28:36;101961.91;;;-0.67;68.91
76847;BME280;65813;49.546;8.644;2023-01-29T07:32:37;101957.56;;;-0.84;66.61
76847;BME280;65813;49.546;8.644;2023-01-29T07:36:37;101964.53;;;-0.89;66.80
76847;BME280;65813;49.546;8.644;2023-01-29T07:40:37;101974.16;;;-0.97;67.71
76847;BME280;65813;49.546;8.644;2023-01-29T07:44:38;101969.81;;;-1.00;68.76
76847;BME280;65813;49.546;8.644;2023-01-29T07:48:38;101971.50;;;-0.93;69.54
76847;BME280;65813;49.546;8.644;2023-01-29T07:52:38;101979.34;;;-0.88;70.06
76847;BME280;65813;49.546;8.644;2023-01-29T07:56:38;101989.84;;;-0.87;69.44
76847;BME280;65813;49.546;8.644;2023-01-29T08:00:39;101995.94;;;-0.80;67.96
76847;BME280;65813;49.546;8.644;2023-01-29T08:04:39;101987.19;;;-0.78;68.10
76847;BME280;65813;49.546;8.644;2023-01-29T08:08:39;102002.91;;;-0.73;68.17
76847;BME280;65813;49.546;8.644;2023-01-29T08:12:40;101996.81;;;-0.80;67.42
76847;BME280;65813;49.546;8.644;2023-01-29T08:16:40;102000.28;;;-0.70;68.14
76847;BME280;65813;49.546;8.644;2023-01-29T08:20:40;101995.84;;;-0.42;69.33
76847;BME280;65813;49.546;8.644;2023-01-29T08:24:41;101994.06;;;-0.21;66.36
76847;BME280;65813;49.546;8.644;2023-01-29T08:28:42;101999.22;;;-0.10;65.37
76847;BME280;65813;49.546;8.644;2023-01-29T08:32:42;102003.63;;;-0.11;64.96
76847;BME280;65813;49.546;8.644;2023-01-29T08:36:42;101989.69;;;-0.25;64.30
76847;BME280;65813;49.546;8.644;2023-01-29T08:40:43;102005.28;;;0.09;65.59
76847;BME280;65813;49.546;8.644;2023-01-29T08:44:43;102014.91;;;0.02;64.28
76847;BME280;65813;49.546;8.644;2023-01-29T08:48:44;102029.69;;;0.20;64.12
76847;BME280;65813;49.546;8.644;2023-01-29T08:52:44;102030.53;;;0.26;64.33
76847;BME280;65813;49.546;8.644;2023-01-29T08:56:45;102018.19;;;0.48;66.50
76847;BME280;65813;49.546;8.644;2023-01-29T09:00:45;101983.22;;;0.49;64.88
76847;BME280;65813;49.546;8.644;2023-01-29T09:04:46;101956.13;;;0.52;65.18
76847;BME280;65813;49.546;8.644;2023-01-29T09:08:46;101944.78;;;0.45;63.09
76847;BME280;65813;49.546;8.644;2023-01-29T09:12:47;101936.03;;;0.50;63.61
76847;BME280;65813;49.546;8.644;2023-01-29T09:16:47;101941.22;;;0.58;66.12
76847;BME280;65813;49.546;8.644;2023-01-29T09:20:47;101941.09;;;0.73;61.93
76847;BME280;65813;49.546;8.644;2023-01-29T09:24:48;101947.25;;;0.66;62.79
76847;BME280;65813;49.546;8.644;2023-01-29T09:28:48;101956.81;;;0.73;62.65
76847;BME280;65813;49.546;8.644;2023-01-29T09:32:48;101961.16;;;0.79;66.00
76847;BME280;65813;49.546;8.644;2023-01-29T09:36:50;101986.47;;;0.81;63.73
76847;BME280;65813;49.546;8.644;2023-01-29T09:49:05;101978.88;;;0.48;63.62
76847;BME280;65813;49.546;8.644;2023-01-29T09:53:18;101996.22;;;0.64;62.71
76847;BME280;65813;49.546;8.644;2023-01-29T09:57:40;102001.47;;;0.64;61.91
76847;BME280;65813;49.546;8.644;2023-01-29T10:02:02;102017.19;;;0.64;62.25
76847;BME280;65813;49.546;8.644;2023-01-29T10:11:24;102031.91;;;0.83;65.80
76847;BME280;65813;49.546;8.644;2023-01-29T10:15:24;102022.34;;;0.78;63.65
76847;BME280;65813;49.546;8.644;2023-01-29T10:19:37;102020.59;;;0.78;64.12
76847;BME280;65813;49.546;8.644;2023-01-29T10:23:53;102007.41;;;0.87;66.12
76847;BME280;65813;49.546;8.644;2023-01-29T10:27:58;102000.38;;;0.92;64.54
76847;BME280;65813;49.546;8.644;2023-01-29T10:32:01;101994.25;;;0.93;65.42
76847;BME280;65813;49.546;8.644;2023-01-29T10:36:07;101984.66;;;0.91;63.25
76847;BME280;65813;49.546;8.644;2023-01-29T10:44:28;101961.88;;;0.94;63.13
76847;BME280;65813;49.546;8.644;2023-01-29T10:48:41;101966.22;;;0.98;65.33
76847;BME280;65813;49.546;8.644;2023-01-29T11:01:09;101943.25;;;1.22;64.00
76847;BME280;65813;49.546;8.644;2023-01-29T11:09:41;101924.63;;;1.47;61.02
76847;BME280;65813;49.546;8.644;2023-01-29T11:14:04;101921.81;;;1.64;60.08
76847;BME280;65813;49.546;8.644;2023-01-29T11:18:10;101918.00;;;1.89;62.09
76847;BME280;65813;49.546;8.644;2023-01-29T11:22:38;101920.66;;;1.85;59.44
76847;BME280;65813;49.546;8.644;2023-01-29T11:26:56;101914.47;;;1.89;59.19
76847;BME280;65813;49.546;8.644;2023-01-29T11:30:57;101887.47;;;1.78;61.92
76847;BME280;65813;49.546;8.644;2023-01-29T11:39:21;101871.19;;;2.16;59.50
76847;BME280;65813;49.546;8.644;2023-01-29T11:47:28;101856.28;;;2.16;59.15
76847;BME280;65813;49.546;8.644;2023-01-29T11:51:29;101843.31;;;2.04;57.50
76847;BME280;65813;49.546;8.644;2023-01-29T11:55:31;101837.41;;;2.45;59.33
76847;BME280;65813;49.546;8.644;2023-01-29T11:59:53;101834.13;;;2.81;58.99
76847;BME280;65813;49.546;8.644;2023-01-29T12:03:54;101824.88;;;2.61;57.09
76847;BME280;65813;49.546;8.644;2023-01-29T12:07:56;101824.34;;;2.40;56.05
76847;BME280;65813;49.546;8.644;2023-01-29T12:12:16;101818.03;;;2.50;57.55
76847;BME280;65813;49.546;8.644;2023-01-29T12:16:22;101800.69;;;2.40;56.61
76847;BME280;65813;49.546;8.644;2023-01-29T12:20:34;101795.19;;;2.52;56.17
76847;BME280;65813;49.546;8.644;2023-01-29T12:24:48;101805.50;;;3.11;57.27
76847;BME280;65813;49.546;8.644;2023-01-29T12:29:25;101786.38;;;3.02;55.71
76847;BME280;65813;49.546;8.644;2023-01-29T12:38:19;101783.28;;;2.81;56.50
76847;BME280;65813;49.546;8.644;2023-01-29T12:42:21;101803.31;;;2.89;56.59
76847;BME280;65813;49.546;8.644;2023-01-29T12:46:26;101794.16;;;3.07;58.31
76847;BME280;65813;49.546;8.644;2023-01-29T12:50:37;101792.09;;;2.78;55.74
76847;BME280;65813;49.546;8.644;2023-01-29T12:54:52;101786.34;;;2.58;57.10
76847;BME280;65813;49.546;8.644;2023-01-29T12:58:55;101761.31;;;2.37;56.41
76847;BME280;65813;49.546;8.644;2023-01-29T13:11:15;101749.75;;;2.90;56.77
76847;BME280;65813;49.546;8.644;2023-01-29T13:15:34;101747.72;;;2.60;56.26
76847;BME280;65813;49.546;8.644;2023-01-29T13:19:39;101752.84;;;2.68;57.61
76847;BME280;65813;49.546;8.644;2023-01-29T13:23:45;101743.63;;;2.90;57.71
76847;BME280;65813;49.546;8.644;2023-01-29T13:27:47;101729.50;;;2.94;57.62
76847;BME280;65813;49.546;8.644;2023-01-29T13:31:49;101733.50;;;2.70;56.48
76847;BME280;65813;49.546;8.644;2023-01-29T13:35:57;101735.91;;;2.36;56.11
76847;BME280;65813;49.546;8.644;2023-01-29T13:40:00;101730.31;;;2.53;58.17
76847;BME280;65813;49.546;8.644;2023-01-29T13:44:03;101731.94;;;2.60;57.71
76847;BME280;65813;49.546;8.644;2023-01-29T13:48:16;101720.19;;;2.32;57.66
76847;BME280;65813;49.546;8.644;2023-01-29T13:52:25;101714.13;;;2.30;57.78
76847;BME280;65813;49.546;8.644;2023-01-29T14:04:34;101702.06;;;2.18;58.69
76847;BME280;65813;49.546;8.644;2023-01-29T14:12:39;101691.25;;;1.86;59.62
76847;BME280;65813;49.546;8.644;2023-01-29T14:16:40;101704.22;;;1.93;59.17
76847;BME280;65813;49.546;8.644;2023-01-29T14:24:48;101689.34;;;1.39;61.63
76847;BME280;65813;49.546;8.644;2023-01-29T14:33:25;101686.75;;;1.91;61.17
76847;BME280;65813;49.546;8.644;2023-01-29T14:37:33;101689.84;;;2.16;61.26
76847;BME280;65813;49.546;8.644;2023-01-29T14:41:35;101672.38;;;2.12;60.32
76847;BME280;65813;49.546;8.644;2023-01-29T14:45:37;101689.22;;;2.01;61.09
76847;BME280;65813;49.546;8.644;2023-01-29T14:49:54;101666.16;;;1.67;60.08
76847;BME280;65813;49.546;8.644;2023-01-29T14:54:01;101676.75;;;2.13;60.54
76847;BME280;65813;49.546;8.644;2023-01-29T14:58:05;101651.75;;;1.90;59.96
76847;BME280;65813;49.546;8.644;2023-01-29T15:02:17;101673.75;;;1.85;60.78
76847;BME280;65813;49.546;8.644;2023-01-29T15:06:27;101680.50;;;1.46;61.27
76847;BME280;65813;49.546;8.644;2023-01-29T15:10:37;101683.16;;;1.43;61.53
76847;BME280;65813;49.546;8.644;2023-01-29T15:14:48;101685.56;;;1.58;61.63
76847;BME280;65813;49.546;8.644;2023-01-29T15:18:54;101674.38;;;1.45;61.44
76847;BME280;65813;49.546;8.644;2023-01-29T15:22:56;101665.88;;;1.30;61.92
76847;BME280;65813;49.546;8.644;2023-01-29T15:26:57;101656.22;;;1.32;62.25
76847;BME280;65813;49.546;8.644;2023-01-29T15:31:00;101662.50;;;1.22;61.95
76847;BME280;65813;49.546;8.644;2023-01-29T15:35:16;101690.38;;;1.29;62.41
76847;BME280;65813;49.546;8.644;2023-01-29T15:39:21;101693.03;;;1.27;62.12
76847;BME280;65813;49.546;8.644;2023-01-29T15:43:33;101638.81;;;0.64;62.75
76847;BME280;65813;49.546;8.644;2023-01-29T15:47:34;101689.00;;;1.00;63.48
76847;BME280;65813;49.546;8.644;2023-01-29T15:51:35;101640.66;;;0.57;63.71
76847;BME280;65813;49.546;8.644;2023-01-29T15:55:35;101671.84;;;0.77;64.28
76847;BME280;65813;49.546;8.644;2023-01-29T15:59:42;101620.69;;;0.47;64.54
76847;BME280;65813;49.546;8.644;2023-01-29T16:03:44;101631.13;;;0.50;65.77
76847;BME280;65813;49.546;8.644;2023-01-29T16:07:45;101601.75;;;0.21;66.32
76847;BME280;65813;49.546;8.644;2023-01-29T16:11:47;101597.50;;;0.12;66.46
76847;BME280;65813;49.546;8.644;2023-01-29T16:19:56;101633.94;;;0.33;68.03
76847;BME280;65813;49.546;8.644;2023-01-29T16:24:00;101638.19;;;0.43;68.06
76847;BME280;65813;49.546;8.644;2023-01-29T16:28:03;101635.78;;;0.25;68.23
76847;BME280;65813;49.546;8.644;2023-01-29T16:32:04;101623.75;;;0.09;68.79
76847;BME280;65813;49.546;8.644;2023-01-29T16:36:20;101622.03;;;0.04;69.11
76847;BME280;65813;49.546;8.644;2023-01-29T16:40:28;101615.09;;;0.03;69.25
76847;BME280;65813;49.546;8.644;2023-01-29T16:44:35;101604.56;;;0.04;69.39
76847;BME280;65813;49.546;8.644;2023-01-29T16:48:35;101598.53;;;-0.03;69.79
76847;BME280;65813;49.546;8.644;2023-01-29T16:52:36;101594.81;;;0.20;69.54
76847;BME280;65813;49.546;8.644;2023-01-29T16:56:37;101593.41;;;0.60;69.53
76847;BME280;65813;49.546;8.644;2023-01-29T17:00:42;101603.47;;;0.90;67.86
76847;BME280;65813;49.546;8.644;2023-01-29T17:04:44;101612.31;;;0.83;67.35
76847;BME280;65813;49.546;8.644;2023-01-29T17:08:45;101619.50;;;0.69;67.61
76847;BME280;65813;49.546;8.644;2023-01-29T17:12:58;101618.09;;;0.42;67.64
76847;BME280;65813;49.546;8.644;2023-01-29T17:17:04;101626.09;;;0.32;68.00
76847;BME280;65813;49.546;8.644;2023-01-29T17:21:05;101624.13;;;0.50;69.20
76847;BME280;65813;49.546;8.644;2023-01-29T17:25:05;101624.69;;;0.75;68.26
76847;BME280;65813;49.546;8.644;2023-01-29T17:29:17;101614.06;;;0.84;67.34
76847;BME280;65813;49.546;8.644;2023-01-29T17:33:19;101627.13;;;0.87;67.60
76847;BME280;65813;49.546;8.644;2023-01-29T17:37:24;101635.88;;;0.86;67.28
76847;BME280;65813;49.546;8.644;2023-01-29T17:41:27;101643.88;;;0.77;67.42
76847;BME280;65813;49.546;8.644;2023-01-29T17:45:29;101640.47;;;0.72;67.44
76847;BME280;65813;49.546;8.644;2023-01-29T17:49:30;101650.91;;;0.75;67.40
76847;BME280;65813;49.546;8.644;2023-01-29T17:53:34;101647.50;;;0.67;67.60
76847;BME280;65813;49.546;8.644;2023-01-29T17:57:35;101655.66;;;0.43;67.65
76847;BME280;65813;49.546;8.644;2023-01-29T18:01:35;101650.34;;;0.49;68.68
76847;BME280;65813;49.546;8.644;2023-01-29T18:05:35;101652.88;;;0.58;68.45
76847;BME280;65813;49.546;8.644;2023-01-29T18:09:36;101665.28;;;0.44;68.85
76847;BME280;65813;49.546;8.644;2023-01-29T18:13:36;101661.25;;;0.13;69.06
76847;BME280;65813;49.546;8.644;2023-01-29T18:17:37;101651.41;;;0.33;69.05
76847;BME280;65813;49.546;8.644;2023-01-29T18:21:37;101650.44;;;-0.47;71.49
76847;BME280;65813;49.546;8.644;2023-01-29T18:25:38;101645.22;;;-0.50;73.02
76847;BME280;65813;49.546;8.644;2023-01-29T18:29:38;101650.88;;;0.00;71.05
76847;BME280;65813;49.546;8.644;2023-01-29T18:33:38;101644.16;;;-0.25;71.70
76847;BME280;65813;49.546;8.644;2023-01-29T18:37:39;101649.50;;;-0.40;72.48
76847;BME280;65813;49.546;8.644;2023-01-29T18:41:39;101649.56;;;-0.46;72.94
76847;BME280;65813;49.546;8.644;2023-01-29T18:45:39;101645.25;;;-0.53;73.41
76847;BME280;65813;49.546;8.644;2023-01-29T18:49:40;101646.00;;;-0.37;72.96
76847;BME280;65813;49.546;8.644;2023-01-29T18:53:40;101649.31;;;-0.19;72.77
76847;BME280;65813;49.546;8.644;2023-01-29T18:57:41;101657.22;;;-0.22;72.62
76847;BME280;65813;49.546;8.644;2023-01-29T19:01:41;101651.97;;;-0.23;72.73
76847;BME280;65813;49.546;8.644;2023-01-29T19:05:42;101641.69;;;-0.41;73.57
76847;BME280;65813;49.546;8.644;2023-01-29T19:09:42;101645.16;;;-0.41;73.76
76847;BME280;65813;49.546;8.644;2023-01-29T19:13:45;101639.16;;;-0.55;73.78
76847;BME280;65813;49.546;8.644;2023-01-29T19:17:48;101652.22;;;-0.49;73.65
76847;BME280;65813;49.546;8.644;2023-01-29T19:21:51;101648.69;;;-0.46;73.91
76847;BME280;65813;49.546;8.644;2023-01-29T19:25:52;101647.94;;;-0.59;74.33
76847;BME280;65813;49.546;8.644;2023-01-29T19:29:56;101658.38;;;-0.56;74.31
76847;BME280;65813;49.546;8.644;2023-01-29T19:33:57;101647.06;;;-0.60;74.02
76847;BME280;65813;49.546;8.644;2023-01-29T19:37:59;101650.53;;;-0.59;74.42
76847;BME280;65813;49.546;8.644;2023-01-29T19:42:00;101636.66;;;-0.66;74.44
76847;BME280;65813;49.546;8.644;2023-01-29T19:46:00;101630.50;;;-0.65;74.60
76847;BME280;65813;49.546;8.644;2023-01-29T19:50:01;101622.78;;;-0.80;75.18
76847;BME280;65813;49.546;8.644;2023-01-29T19:54:01;101631.34;;;-0.60;74.48
76847;BME280;65813;49.546;8.644;2023-01-29T19:58:03;101631.19;;;-0.40;73.90
76847;BME280;65813;49.546;8.644;2023-01-29T20:02:03;101623.56;;;-0.67;74.48
76847;BME280;65813;49.546;8.644;2023-01-29T20:06:05;101634.06;;;-0.70;75.35
76847;BME280;65813;49.546;8.644;2023-01-29T20:10:06;101629.72;;;-0.74;75.58
76847;BME280;65813;49.546;8.644;2023-01-29T20:14:08;101630.22;;;-0.30;73.90
76847;BME280;65813;49.546;8.644;2023-01-29T20:18:10;101623.59;;;-0.72;74.74
76847;BME280;65813;49.546;8.644;2023-01-29T20:22:12;101622.81;;;-0.84;75.57
76847;BME280;65813;49.546;8.644;2023-01-29T20:26:14;101624.66;;;-0.98;76.78
76847;BME280;65813;49.546;8.644;2023-01-29T20:30:15;101616.75;;;-0.89;76.10
76847;BME280;65813;49.546;8.644;2023-01-29T20:34:15;101615.06;;;-0.99;76.24
76847;BME280;65813;49.546;8.644;2023-01-29T20:38:15;101613.38;;;-1.05;76.47
76847;BME280;65813;49.546;8.644;2023-01-29T20:42:16;101619.47;;;-1.05;76.18
76847;BME280;65813;49.546;8.644;2023-01-29T20:46:16;101621.22;;;-1.07;76.58
76847;BME280;65813;49.546;8.644;2023-01-29T20:50:17;101630.84;;;-1.15;76.78
76847;BME280;65813;49.546;8.644;2023-01-29T20:54:18;101636.88;;;-1.07;76.47
76847;BME280;65813;49.546;8.644;2023-01-29T20:58:19;101629.97;;;-1.14;76.78
76847;BME280;65813;49.546;8.644;2023-01-29T21:02:20;101624.69;;;-1.05;76.86
76847;BME280;65813;49.546;8.644;2023-01-29T21:06:21;101622.06;;;-1.02;76.77
76847;BME280;65813;49.546;8.644;2023-01-29T21:10:21;101618.56;;;-0.97;76.56
76847;BME280;65813;49.546;8.644;2023-01-29T21:14:21;101611.69;;;-1.11;76.97
76847;BME280;65813;49.546;8.644;2023-01-29T21:18:22;101609.81;;;-0.95;77.26
76847;BME280;65813;49.546;8.644;2023-01-29T21:22:24;101605.41;;;-0.88;77.17
76847;BME280;65813;49.546;8.644;2023-01-29T21:26:25;101594.13;;;-0.96;77.02
76847;BME280;65813;49.546;8.644;2023-01-29T21:30:25;101590.63;;;-0.92;77.27
76847;BME280;65813;49.546;8.644;2023-01-29T21:34:26;101580.22;;;-0.98;77.23
76847;BME280;65813;49.546;8.644;2023-01-29T21:38:26;101573.22;;;-0.96;77.49
76847;BME280;65813;49.546;8.644;2023-01-29T21:42:27;101569.75;;;-0.98;77.71
76847;BME280;65813;49.546;8.644;2023-01-29T21:46:45;101581.81;;;-0.82;77.27
76847;BME280;65813;49.546;8.644;2023-01-29T21:50:46;101575.63;;;-0.71;77.49
76847;BME280;65813;49.546;8.644;2023-01-29T21:54:47;101570.53;;;-0.83;77.80
76847;BME280;65813;49.546;8.644;2023-01-29T21:58:48;101557.34;;;-0.75;77.37
76847;BME280;65813;49.546;8.644;2023-01-29T22:02:48;101543.44;;;-0.79;77.59
76847;BME280;65813;49.546;8.644;2023-01-29T22:06:50;101546.84;;;-0.66;76.99
76847;BME280;65813;49.546;8.644;2023-01-29T22:10:50;101545.19;;;-0.76;77.78
76847;BME280;65813;49.546;8.644;2023-01-29T22:14:51;101530.38;;;-0.77;77.97
